sensor_id;sensor_type;location;lat;lon;timestamp;P1;durP1;ratioP1;P2;durP2;ratioP2
21727;SDS011;11026;50.560;17.852;2022-12-29T00:00:08;10.52;;;6.53;;
21727;SDS011;11026;50.560;17.852;2022-12-29T00:02:36;8.18;;;5.40;;
21727;SDS011;11026;50.560;17.852;2022-12-29T00:05:04;7.10;;;5.53;;
21727;SDS011;11026;50.560;17.852;2022-12-29T00:07:31;10.27;;;5.60;;
21727;SDS011;11026;50.560;17.852;2022-12-29T00:09:59;8.82;;;5.95;;
21727;SDS011;11026;50.560;17.852;2022-12-29T00:12:26;9.45;;;5.03;;
21727;SDS011;11026;50.560;17.852;2022-12-29T00:15:14;8.25;;;5.57;;
21727;SDS011;11026;50.560;17.852;2022-12-29T00:18:00;7.72;;;5.53;;
21727;SDS011;11026;50.560;17.852;2022-12-29T00:20:27;9.27;;;5.85;;
21727;SDS011;11026;50.560;17.852;2022-12-29T00:23:14;8.48;;;4.95;;
21727;SDS011;11026;50.560;17.852;2022-12-29T00:26:05;7.78;;;5.22;;
21727;SDS011;11026;50.560;17.852;2022-12-29T00:29:17;7.95;;;5.57;;
21727;SDS011;11026;50.560;17.852;2022-12-29T00:32:04;8.15;;;5.13;;
21727;SDS011;11026;50.560;17.852;2022-12-29T00:34:49;8.15;;;4.80;;
21727;SDS011;11026;50.560;17.852;2022-12-29T00:40:43;8.27;;;3.95;;
21727;SDS011;11026;50.560;17.852;2022-12-29T00:43:29;5.97;;;3.90;;
21727;SDS011;11026;50.560;17.852;2022-12-29T00:46:15;7.72;;;4.60;;
21727;SDS011;11026;50.560;17.852;2022-12-29T00:48:45;9.40;;;5.50;;
21727;SDS011;11026;50.560;17.852;2022-12-29T00:51:32;7.00;;;4.88;;
21727;SDS011;11026;50.560;17.852;2022-12-29T00:54:00;7.10;;;5.28;;
21727;SDS011;11026;50.560;17.852;2022-12-29T00:56:29;7.40;;;5.05;;
21727;SDS011;11026;50.560;17.852;2022-12-29T00:59:00;10.45;;;7.15;;
21727;SDS011;11026;50.560;17.852;2022-12-29T01:01:29;11.55;;;5.45;;
21727;SDS011;11026;50.560;17.852;2022-12-29T01:03:59;8.85;;;5.55;;
21727;SDS011;11026;50.560;17.852;2022-12-29T01:06:30;8.93;;;5.93;;
21727;SDS011;11026;50.560;17.852;2022-12-29T01:08:58;9.15;;;5.68;;
21727;SDS011;11026;50.560;17.852;2022-12-29T01:11:45;9.45;;;5.63;;
21727;SDS011;11026;50.560;17.852;2022-12-29T01:14:12;9.48;;;5.95;;
21727;SDS011;11026;50.560;17.852;2022-12-29T01:16:40;8.32;;;5.50;;
21727;SDS011;11026;50.560;17.852;2022-12-29T01:19:08;10.80;;;6.65;;
21727;SDS011;11026;50.560;17.852;2022-12-29T01:21:45;7.35;;;5.07;;
21727;SDS011;11026;50.560;17.852;2022-12-29T01:24:13;9.43;;;5.55;;
21727;SDS011;11026;50.560;17.852;2022-12-29T01:26:42;10.27;;;6.22;;
21727;SDS011;11026;50.560;17.852;2022-12-29T01:29:11;9.57;;;6.43;;
21727;SDS011;11026;50.560;17.852;2022-12-29T01:31:39;8.43;;;5.65;;
21727;SDS011;11026;50.560;17.852;2022-12-29T01:34:08;8.00;;;5.82;;
21727;SDS011;11026;50.560;17.852;2022-12-29T01:36:35;10.68;;;6.10;;
21727;SDS011;11026;50.560;17.852;2022-12-29T01:39:02;8.60;;;6.22;;
21727;SDS011;11026;50.560;17.852;2022-12-29T01:41:30;9.73;;;5.72;;
21727;SDS011;11026;50.560;17.852;2022-12-29T01:44:39;10.82;;;6.78;;
21727;SDS011;11026;50.560;17.852;2022-12-29T01:47:09;10.40;;;5.75;;
21727;SDS011;11026;50.560;17.852;2022-12-29T01:49:37;9.50;;;6.38;;
21727;SDS011;11026;50.560;17.852;2022-12-29T01:52:06;9.02;;;5.65;;
21727;SDS011;11026;50.560;17.852;2022-12-29T01:54:39;11.57;;;6.15;;
21727;SDS011;11026;50.560;17.852;2022-12-29T01:57:12;10.65;;;6.35;;
21727;SDS011;11026;50.560;17.852;2022-12-29T01:59:54;8.88;;;5.80;;
21727;SDS011;11026;50.560;17.852;2022-12-29T02:02:31;8.77;;;5.32;;
21727;SDS011;11026;50.560;17.852;2022-12-29T02:05:01;9.57;;;6.57;;
21727;SDS011;11026;50.560;17.852;2022-12-29T02:07:45;7.50;;;5.40;;
21727;SDS011;11026;50.560;17.852;2022-12-29T02:10:15;8.93;;;6.38;;
21727;SDS011;11026;50.560;17.852;2022-12-29T02:12:43;8.10;;;5.18;;
21727;SDS011;11026;50.560;17.852;2022-12-29T02:15:12;9.85;;;6.05;;
21727;SDS011;11026;50.560;17.852;2022-12-29T02:20:53;11.63;;;5.68;;
21727;SDS011;11026;50.560;17.852;2022-12-29T02:26:46;7.60;;;4.95;;
21727;SDS011;11026;50.560;17.852;2022-12-29T02:32:38;10.38;;;6.35;;
21727;SDS011;11026;50.560;17.852;2022-12-29T02:35:23;6.90;;;5.15;;
21727;SDS011;11026;50.560;17.852;2022-12-29T02:41:08;7.18;;;5.65;;
21727;SDS011;11026;50.560;17.852;2022-12-29T02:46:44;9.32;;;5.10;;
21727;SDS011;11026;50.560;17.852;2022-12-29T02:52:16;9.68;;;5.65;;
21727;SDS011;11026;50.560;17.852;2022-12-29T02:54:50;7.53;;;5.00;;
21727;SDS011;11026;50.560;17.852;2022-12-29T02:59:52;11.13;;;6.50;;
21727;SDS011;11026;50.560;17.852;2022-12-29T03:16:47;9.45;;;6.18;;
21727;SDS011;11026;50.560;17.852;2022-12-29T03:22:09;8.68;;;5.55;;
21727;SDS011;11026;50.560;17.852;2022-12-29T03:24:55;9.10;;;5.57;;
21727;SDS011;11026;50.560;17.852;2022-12-29T03:27:28;8.88;;;6.20;;
21727;SDS011;11026;50.560;17.852;2022-12-29T03:30:00;12.07;;;6.30;;
21727;SDS011;11026;50.560;17.852;2022-12-29T03:32:36;11.52;;;7.13;;
21727;SDS011;11026;50.560;17.852;2022-12-29T03:35:10;8.55;;;6.03;;
21727;SDS011;11026;50.560;17.852;2022-12-29T03:38:27;10.82;;;6.95;;
21727;SDS011;11026;50.560;17.852;2022-12-29T03:40:41;9.27;;;6.20;;
21727;SDS011;11026;50.560;17.852;2022-12-29T03:43:11;11.25;;;5.88;;
21727;SDS011;11026;50.560;17.852;2022-12-29T03:45:39;8.68;;;6.22;;
21727;SDS011;11026;50.560;17.852;2022-12-29T03:48:07;10.88;;;7.20;;
21727;SDS011;11026;50.560;17.852;2022-12-29T03:50:34;9.48;;;6.22;;
21727;SDS011;11026;50.560;17.852;2022-12-29T03:53:04;8.95;;;6.35;;
21727;SDS011;11026;50.560;17.852;2022-12-29T03:55:32;8.55;;;6.43;;
21727;SDS011;11026;50.560;17.852;2022-12-29T03:58:06;12.65;;;6.80;;
21727;SDS011;11026;50.560;17.852;2022-12-29T04:00:33;9.77;;;6.35;;
21727;SDS011;11026;50.560;17.852;2022-12-29T04:03:00;11.38;;;5.80;;
21727;SDS011;11026;50.560;17.852;2022-12-29T04:05:31;9.10;;;5.95;;
21727;SDS011;11026;50.560;17.852;2022-12-29T04:07:59;14.73;;;7.00;;
21727;SDS011;11026;50.560;17.852;2022-12-29T04:10:26;11.00;;;6.72;;
21727;SDS011;11026;50.560;17.852;2022-12-29T04:12:54;11.25;;;6.55;;
21727;SDS011;11026;50.560;17.852;2022-12-29T04:15:22;11.10;;;6.47;;
21727;SDS011;11026;50.560;17.852;2022-12-29T04:17:52;9.07;;;5.97;;
21727;SDS011;11026;50.560;17.852;2022-12-29T04:20:19;11.68;;;6.40;;
21727;SDS011;11026;50.560;17.852;2022-12-29T04:23:06;10.25;;;6.28;;
21727;SDS011;11026;50.560;17.852;2022-12-29T04:25:34;9.13;;;5.60;;
21727;SDS011;11026;50.560;17.852;2022-12-29T04:28:01;8.60;;;5.85;;
21727;SDS011;11026;50.560;17.852;2022-12-29T04:30:28;9.25;;;5.55;;
21727;SDS011;11026;50.560;17.852;2022-12-29T04:32:56;6.20;;;4.90;;
21727;SDS011;11026;50.560;17.852;2022-12-29T04:35:23;8.98;;;5.75;;
21727;SDS011;11026;50.560;17.852;2022-12-29T04:37:51;9.38;;;6.57;;
21727;SDS011;11026;50.560;17.852;2022-12-29T04:40:18;11.30;;;6.70;;
21727;SDS011;11026;50.560;17.852;2022-12-29T04:42:52;9.52;;;6.10;;
21727;SDS011;11026;50.560;17.852;2022-12-29T04:45:19;12.60;;;6.43;;
21727;SDS011;11026;50.560;17.852;2022-12-29T04:47:47;8.75;;;4.60;;
21727;SDS011;11026;50.560;17.852;2022-12-29T04:50:14;9.82;;;6.30;;
21727;SDS011;11026;50.560;17.852;2022-12-29T04:52:43;8.38;;;5.97;;
21727;SDS011;11026;50.560;17.852;2022-12-29T04:55:11;10.25;;;5.40;;
21727;SDS011;11026;50.560;17.852;2022-12-29T04:57:38;9.07;;;5.80;;
21727;SDS011;11026;50.560;17.852;2022-12-29T05:00:06;10.00;;;6.53;;
21727;SDS011;11026;50.560;17.852;2022-12-29T05:02:35;8.65;;;6.60;;
21727;SDS011;11026;50.560;17.852;2022-12-29T05:05:10;8.07;;;5.53;;
21727;SDS011;11026;50.560;17.852;2022-12-29T05:07:38;10.35;;;6.85;;
21727;SDS011;11026;50.560;17.852;2022-12-29T05:10:06;10.35;;;6.60;;
21727;SDS011;11026;50.560;17.852;2022-12-29T05:12:35;8.98;;;6.38;;
21727;SDS011;11026;50.560;17.852;2022-12-29T05:15:04;11.10;;;7.38;;
21727;SDS011;11026;50.560;17.852;2022-12-29T05:17:34;8.75;;;5.75;;
21727;SDS011;11026;50.560;17.852;2022-12-29T05:20:01;9.60;;;6.72;;
21727;SDS011;11026;50.560;17.852;2022-12-29T05:22:29;12.18;;;6.35;;
21727;SDS011;11026;50.560;17.852;2022-12-29T05:24:57;10.93;;;6.72;;
21727;SDS011;11026;50.560;17.852;2022-12-29T05:27:24;8.60;;;6.43;;
21727;SDS011;11026;50.560;17.852;2022-12-29T05:29:52;9.43;;;6.68;;
21727;SDS011;11026;50.560;17.852;2022-12-29T05:32:19;9.35;;;6.43;;
21727;SDS011;11026;50.560;17.852;2022-12-29T05:34:47;8.48;;;5.88;;
21727;SDS011;11026;50.560;17.852;2022-12-29T05:37:14;7.55;;;5.35;;
21727;SDS011;11026;50.560;17.852;2022-12-29T05:39:45;10.18;;;6.13;;
21727;SDS011;11026;50.560;17.852;2022-12-29T05:42:12;9.32;;;5.72;;
21727;SDS011;11026;50.560;17.852;2022-12-29T05:44:39;8.32;;;5.88;;
21727;SDS011;11026;50.560;17.852;2022-12-29T05:47:07;9.45;;;5.93;;
21727;SDS011;11026;50.560;17.852;2022-12-29T05:49:34;8.43;;;5.75;;
21727;SDS011;11026;50.560;17.852;2022-12-29T05:52:02;9.05;;;6.32;;
21727;SDS011;11026;50.560;17.852;2022-12-29T05:54:29;8.98;;;6.47;;
21727;SDS011;11026;50.560;17.852;2022-12-29T05:56:57;8.85;;;6.40;;
21727;SDS011;11026;50.560;17.852;2022-12-29T05:59:24;10.60;;;6.35;;
21727;SDS011;11026;50.560;17.852;2022-12-29T06:01:52;10.15;;;6.63;;
21727;SDS011;11026;50.560;17.852;2022-12-29T06:04:20;11.98;;;6.28;;
21727;SDS011;11026;50.560;17.852;2022-12-29T06:06:49;9.60;;;6.28;;
21727;SDS011;11026;50.560;17.852;2022-12-29T06:09:16;9.77;;;6.57;;
21727;SDS011;11026;50.560;17.852;2022-12-29T06:11:44;9.82;;;6.47;;
21727;SDS011;11026;50.560;17.852;2022-12-29T06:14:11;9.40;;;5.85;;
21727;SDS011;11026;50.560;17.852;2022-12-29T06:16:38;9.00;;;6.45;;
21727;SDS011;11026;50.560;17.852;2022-12-29T06:19:06;9.25;;;5.82;;
21727;SDS011;11026;50.560;17.852;2022-12-29T06:21:33;9.27;;;6.50;;
21727;SDS011;11026;50.560;17.852;2022-12-29T06:24:01;8.05;;;5.75;;
21727;SDS011;11026;50.560;17.852;2022-12-29T06:26:28;7.78;;;5.25;;
21727;SDS011;11026;50.560;17.852;2022-12-29T06:28:58;9.13;;;5.28;;
21727;SDS011;11026;50.560;17.852;2022-12-29T06:31:26;9.90;;;5.20;;
21727;SDS011;11026;50.560;17.852;2022-12-29T06:33:53;8.60;;;5.50;;
21727;SDS011;11026;50.560;17.852;2022-12-29T06:36:21;8.50;;;5.57;;
21727;SDS011;11026;50.560;17.852;2022-12-29T06:38:48;7.80;;;5.03;;
21727;SDS011;11026;50.560;17.852;2022-12-29T06:41:20;7.88;;;5.32;;
21727;SDS011;11026;50.560;17.852;2022-12-29T06:43:55;7.45;;;5.15;;
21727;SDS011;11026;50.560;17.852;2022-12-29T06:46:23;8.13;;;5.28;;
21727;SDS011;11026;50.560;17.852;2022-12-29T06:48:50;8.70;;;5.38;;
21727;SDS011;11026;50.560;17.852;2022-12-29T06:51:18;6.85;;;5.15;;
21727;SDS011;11026;50.560;17.852;2022-12-29T06:53:45;7.55;;;5.05;;
21727;SDS011;11026;50.560;17.852;2022-12-29T06:56:14;7.20;;;5.35;;
21727;SDS011;11026;50.560;17.852;2022-12-29T06:58:41;7.20;;;5.30;;
21727;SDS011;11026;50.560;17.852;2022-12-29T07:01:09;7.68;;;4.95;;
21727;SDS011;11026;50.560;17.852;2022-12-29T07:03:37;7.97;;;5.95;;
21727;SDS011;11026;50.560;17.852;2022-12-29T07:06:04;9.23;;;5.47;;
21727;SDS011;11026;50.560;17.852;2022-12-29T07:08:32;8.38;;;5.25;;
21727;SDS011;11026;50.560;17.852;2022-12-29T07:11:00;10.50;;;4.93;;
21727;SDS011;11026;50.560;17.852;2022-12-29T07:13:27;9.10;;;4.60;;
21727;SDS011;11026;50.560;17.852;2022-12-29T07:15:55;6.15;;;4.93;;
21727;SDS011;11026;50.560;17.852;2022-12-29T07:18:22;9.27;;;5.22;;
21727;SDS011;11026;50.560;17.852;2022-12-29T07:20:56;8.02;;;4.97;;
21727;SDS011;11026;50.560;17.852;2022-12-29T07:26:01;7.85;;;5.07;;
21727;SDS011;11026;50.560;17.852;2022-12-29T07:28:31;7.63;;;4.90;;
21727;SDS011;11026;50.560;17.852;2022-12-29T07:31:00;8.05;;;4.93;;
21727;SDS011;11026;50.560;17.852;2022-12-29T07:33:30;8.80;;;5.30;;
21727;SDS011;11026;50.560;17.852;2022-12-29T07:35:59;7.18;;;5.05;;
21727;SDS011;11026;50.560;17.852;2022-12-29T07:38:26;7.72;;;4.85;;
21727;SDS011;11026;50.560;17.852;2022-12-29T07:40:57;6.25;;;4.07;;
21727;SDS011;11026;50.560;17.852;2022-12-29T07:43:26;7.43;;;5.38;;
21727;SDS011;11026;50.560;17.852;2022-12-29T07:45:53;6.70;;;5.03;;
21727;SDS011;11026;50.560;17.852;2022-12-29T07:48:21;7.82;;;5.13;;
21727;SDS011;11026;50.560;17.852;2022-12-29T07:50:49;6.97;;;5.05;;
21727;SDS011;11026;50.560;17.852;2022-12-29T07:53:16;9.68;;;5.32;;
21727;SDS011;11026;50.560;17.852;2022-12-29T07:55:44;9.38;;;5.20;;
21727;SDS011;11026;50.560;17.852;2022-12-29T07:58:11;7.25;;;4.55;;
21727;SDS011;11026;50.560;17.852;2022-12-29T08:00:39;7.53;;;4.85;;
21727;SDS011;11026;50.560;17.852;2022-12-29T08:03:06;6.82;;;4.78;;
21727;SDS011;11026;50.560;17.852;2022-12-29T08:05:34;8.88;;;4.68;;
21727;SDS011;11026;50.560;17.852;2022-12-29T08:08:01;10.43;;;5.15;;
21727;SDS011;11026;50.560;17.852;2022-12-29T08:10:35;8.48;;;4.82;;
21727;SDS011;11026;50.560;17.852;2022-12-29T08:13:03;8.13;;;4.57;;
21727;SDS011;11026;50.560;17.852;2022-12-29T08:15:31;7.78;;;4.68;;
21727;SDS011;11026;50.560;17.852;2022-12-29T08:17:58;6.95;;;5.18;;
21727;SDS011;11026;50.560;17.852;2022-12-29T08:20:27;7.40;;;4.80;;
21727;SDS011;11026;50.560;17.852;2022-12-29T08:22:54;7.18;;;4.90;;
21727;SDS011;11026;50.560;17.852;2022-12-29T08:25:21;8.65;;;4.80;;
21727;SDS011;11026;50.560;17.852;2022-12-29T08:27:49;8.38;;;4.65;;
21727;SDS011;11026;50.560;17.852;2022-12-29T08:30:17;8.00;;;5.50;;
21727;SDS011;11026;50.560;17.852;2022-12-29T08:32:44;8.90;;;4.97;;
21727;SDS011;11026;50.560;17.852;2022-12-29T08:35:12;7.38;;;5.35;;
21727;SDS011;11026;50.560;17.852;2022-12-29T08:37:39;9.52;;;5.68;;
21727;SDS011;11026;50.560;17.852;2022-12-29T08:40:06;9.20;;;6.03;;
21727;SDS011;11026;50.560;17.852;2022-12-29T08:42:35;9.05;;;5.70;;
21727;SDS011;11026;50.560;17.852;2022-12-29T08:45:03;8.85;;;5.72;;
21727;SDS011;11026;50.560;17.852;2022-12-29T08:47:30;7.70;;;5.63;;
21727;SDS011;11026;50.560;17.852;2022-12-29T08:49:58;10.88;;;6.18;;
21727;SDS011;11026;50.560;17.852;2022-12-29T08:52:25;7.18;;;4.80;;
21727;SDS011;11026;50.560;17.852;2022-12-29T08:54:52;8.93;;;5.50;;
21727;SDS011;11026;50.560;17.852;2022-12-29T08:57:19;8.60;;;5.28;;
21727;SDS011;11026;50.560;17.852;2022-12-29T08:59:46;10.30;;;6.25;;
21727;SDS011;11026;50.560;17.852;2022-12-29T09:02:14;8.20;;;6.13;;
21727;SDS011;11026;50.560;17.852;2022-12-29T09:04:50;8.27;;;5.95;;
21727;SDS011;11026;50.560;17.852;2022-12-29T09:07:17;6.18;;;3.70;;
21727;SDS011;11026;50.560;17.852;2022-12-29T09:09:44;8.18;;;4.50;;
21727;SDS011;11026;50.560;17.852;2022-12-29T09:12:17;11.73;;;5.97;;
21727;SDS011;11026;50.560;17.852;2022-12-29T09:14:48;10.25;;;6.28;;
21727;SDS011;11026;50.560;17.852;2022-12-29T09:17:15;9.20;;;5.57;;
21727;SDS011;11026;50.560;17.852;2022-12-29T09:20:01;10.02;;;5.80;;
21727;SDS011;11026;50.560;17.852;2022-12-29T09:22:29;9.30;;;6.10;;
21727;SDS011;11026;50.560;17.852;2022-12-29T09:24:57;9.75;;;6.18;;
21727;SDS011;11026;50.560;17.852;2022-12-29T09:27:24;10.85;;;6.35;;
21727;SDS011;11026;50.560;17.852;2022-12-29T09:29:53;10.82;;;6.32;;
21727;SDS011;11026;50.560;17.852;2022-12-29T09:32:20;9.13;;;5.65;;
21727;SDS011;11026;50.560;17.852;2022-12-29T09:34:50;8.30;;;5.95;;
21727;SDS011;11026;50.560;17.852;2022-12-29T09:37:17;9.63;;;5.80;;
21727;SDS011;11026;50.560;17.852;2022-12-29T09:39:45;9.98;;;6.32;;
21727;SDS011;11026;50.560;17.852;2022-12-29T09:42:32;8.68;;;5.50;;
21727;SDS011;11026;50.560;17.852;2022-12-29T09:47:56;8.98;;;6.38;;
21727;SDS011;11026;50.560;17.852;2022-12-29T09:50:36;7.47;;;4.65;;
21727;SDS011;11026;50.560;17.852;2022-12-29T09:53:07;9.18;;;6.57;;
21727;SDS011;11026;50.560;17.852;2022-12-29T09:55:49;11.10;;;7.30;;
21727;SDS011;11026;50.560;17.852;2022-12-29T10:01:06;14.30;;;8.55;;
21727;SDS011;11026;50.560;17.852;2022-12-29T10:06:22;11.73;;;8.73;;
21727;SDS011;11026;50.560;17.852;2022-12-29T10:25:38;11.55;;;6.97;;
21727;SDS011;11026;50.560;17.852;2022-12-29T10:28:15;11.60;;;6.18;;
21727;SDS011;11026;50.560;17.852;2022-12-29T10:30:50;11.05;;;6.60;;
21727;SDS011;11026;50.560;17.852;2022-12-29T10:33:21;8.00;;;5.45;;
21727;SDS011;11026;50.560;17.852;2022-12-29T10:35:50;11.95;;;7.95;;
21727;SDS011;11026;50.560;17.852;2022-12-29T10:38:24;10.80;;;6.65;;
21727;SDS011;11026;50.560;17.852;2022-12-29T10:41:16;12.68;;;7.75;;
21727;SDS011;11026;50.560;17.852;2022-12-29T10:43:48;10.15;;;6.45;;
21727;SDS011;11026;50.560;17.852;2022-12-29T10:46:28;9.05;;;6.15;;
21727;SDS011;11026;50.560;17.852;2022-12-29T10:49:00;10.57;;;7.53;;
21727;SDS011;11026;50.560;17.852;2022-12-29T10:51:30;13.02;;;7.80;;
21727;SDS011;11026;50.560;17.852;2022-12-29T10:54:04;12.73;;;7.57;;
21727;SDS011;11026;50.560;17.852;2022-12-29T10:57:00;11.65;;;8.00;;
21727;SDS011;11026;50.560;17.852;2022-12-29T10:59:35;10.55;;;6.65;;
21727;SDS011;11026;50.560;17.852;2022-12-29T11:04:55;11.88;;;7.80;;
21727;SDS011;11026;50.560;17.852;2022-12-29T11:07:32;15.88;;;7.40;;
21727;SDS011;11026;50.560;17.852;2022-12-29T11:13:15;11.25;;;7.05;;
21727;SDS011;11026;50.560;17.852;2022-12-29T11:15:47;11.63;;;7.88;;
21727;SDS011;11026;50.560;17.852;2022-12-29T11:21:09;10.57;;;6.72;;
21727;SDS011;11026;50.560;17.852;2022-12-29T11:24:36;11.98;;;7.35;;
21727;SDS011;11026;50.560;17.852;2022-12-29T11:26:50;9.25;;;6.22;;
21727;SDS011;11026;50.560;17.852;2022-12-29T11:29:22;10.45;;;6.35;;
21727;SDS011;11026;50.560;17.852;2022-12-29T11:31:53;11.15;;;6.65;;
21727;SDS011;11026;50.560;17.852;2022-12-29T11:34:27;9.00;;;6.45;;
21727;SDS011;11026;50.560;17.852;2022-12-29T11:37:11;11.65;;;6.68;;
21727;SDS011;11026;50.560;17.852;2022-12-29T11:39:46;8.25;;;6.07;;
21727;SDS011;11026;50.560;17.852;2022-12-29T11:42:38;6.80;;;4.80;;
21727;SDS011;11026;50.560;17.852;2022-12-29T11:45:18;9.68;;;6.28;;
21727;SDS011;11026;50.560;17.852;2022-12-29T11:48:14;9.80;;;6.47;;
21727;SDS011;11026;50.560;17.852;2022-12-29T11:50:55;10.52;;;6.63;;
21727;SDS011;11026;50.560;17.852;2022-12-29T11:53:46;11.20;;;7.40;;
21727;SDS011;11026;50.560;17.852;2022-12-29T11:56:17;9.13;;;6.10;;
21727;SDS011;11026;50.560;17.852;2022-12-29T11:58:50;11.38;;;7.47;;
21727;SDS011;11026;50.560;17.852;2022-12-29T12:01:34;9.20;;;6.85;;
21727;SDS011;11026;50.560;17.852;2022-12-29T12:04:10;12.77;;;7.10;;
21727;SDS011;11026;50.560;17.852;2022-12-29T12:06:50;10.35;;;7.07;;
21727;SDS011;11026;50.560;17.852;2022-12-29T12:09:29;11.63;;;8.15;;
21727;SDS011;11026;50.560;17.852;2022-12-29T12:12:03;13.55;;;8.45;;
21727;SDS011;11026;50.560;17.852;2022-12-29T12:14:37;11.10;;;7.82;;
21727;SDS011;11026;50.560;17.852;2022-12-29T12:17:21;12.32;;;7.95;;
21727;SDS011;11026;50.560;17.852;2022-12-29T12:19:59;12.63;;;7.72;;
21727;SDS011;11026;50.560;17.852;2022-12-29T12:22:38;12.38;;;7.45;;
21727;SDS011;11026;50.560;17.852;2022-12-29T12:25:57;11.90;;;7.80;;
21727;SDS011;11026;50.560;17.852;2022-12-29T12:28:20;15.27;;;8.55;;
21727;SDS011;11026;50.560;17.852;2022-12-29T12:31:02;12.00;;;6.68;;
21727;SDS011;11026;50.560;17.852;2022-12-29T12:33:37;13.02;;;8.90;;
21727;SDS011;11026;50.560;17.852;2022-12-29T12:54:18;13.65;;;8.23;;
21727;SDS011;11026;50.560;17.852;2022-12-29T12:59:39;13.27;;;8.68;;
21727;SDS011;11026;50.560;17.852;2022-12-29T13:05:13;13.75;;;9.10;;
21727;SDS011;11026;50.560;17.852;2022-12-29T13:13:57;16.63;;;10.57;;
21727;SDS011;11026;50.560;17.852;2022-12-29T13:16:53;13.68;;;9.20;;
21727;SDS011;11026;50.560;17.852;2022-12-29T13:28:00;13.55;;;9.25;;
21727;SDS011;11026;50.560;17.852;2022-12-29T13:33:38;13.68;;;8.45;;
21727;SDS011;11026;50.560;17.852;2022-12-29T13:39:06;19.75;;;9.93;;
21727;SDS011;11026;50.560;17.852;2022-12-29T13:41:52;23.70;;;13.35;;
21727;SDS011;11026;50.560;17.852;2022-12-29T13:44:25;13.85;;;10.05;;
21727;SDS011;11026;50.560;17.852;2022-12-29T13:47:26;21.58;;;10.30;;
21727;SDS011;11026;50.560;17.852;2022-12-29T13:50:12;14.93;;;9.45;;
21727;SDS011;11026;50.560;17.852;2022-12-29T14:04:11;11.68;;;8.73;;
21727;SDS011;11026;50.560;17.852;2022-12-29T14:06:40;12.75;;;8.63;;
21727;SDS011;11026;50.560;17.852;2022-12-29T14:09:28;14.25;;;8.65;;
21727;SDS011;11026;50.560;17.852;2022-12-29T14:12:05;12.90;;;8.00;;
21727;SDS011;11026;50.560;17.852;2022-12-29T14:15:06;14.38;;;9.55;;
21727;SDS011;11026;50.560;17.852;2022-12-29T14:17:43;14.10;;;8.85;;
21727;SDS011;11026;50.560;17.852;2022-12-29T14:20:18;12.60;;;8.52;;
21727;SDS011;11026;50.560;17.852;2022-12-29T14:22:59;15.85;;;9.15;;
21727;SDS011;11026;50.560;17.852;2022-12-29T14:28:26;16.02;;;9.05;;
21727;SDS011;11026;50.560;17.852;2022-12-29T14:30:56;14.98;;;9.70;;
21727;SDS011;11026;50.560;17.852;2022-12-29T14:42:06;15.82;;;9.77;;
21727;SDS011;11026;50.560;17.852;2022-12-29T14:44:48;16.13;;;10.00;;
21727;SDS011;11026;50.560;17.852;2022-12-29T14:47:31;14.57;;;9.60;;
21727;SDS011;11026;50.560;17.852;2022-12-29T14:52:40;13.82;;;9.35;;
21727;SDS011;11026;50.560;17.852;2022-12-29T14:59:11;16.70;;;9.65;;
21727;SDS011;11026;50.560;17.852;2022-12-29T15:04:05;15.35;;;8.90;;
21727;SDS011;11026;50.560;17.852;2022-12-29T15:06:41;16.15;;;8.40;;
21727;SDS011;11026;50.560;17.852;2022-12-29T15:09:14;15.13;;;9.02;;
21727;SDS011;11026;50.560;17.852;2022-12-29T15:12:53;13.20;;;8.80;;
21727;SDS011;11026;50.560;17.852;2022-12-29T15:15:19;18.92;;;11.48;;
21727;SDS011;11026;50.560;17.852;2022-12-29T15:17:57;16.30;;;11.25;;
21727;SDS011;11026;50.560;17.852;2022-12-29T15:20:50;14.82;;;9.98;;
21727;SDS011;11026;50.560;17.852;2022-12-29T15:23:24;16.17;;;9.80;;
21727;SDS011;11026;50.560;17.852;2022-12-29T15:25:56;15.07;;;9.60;;
21727;SDS011;11026;50.560;17.852;2022-12-29T15:31:01;17.60;;;10.93;;
21727;SDS011;11026;50.560;17.852;2022-12-29T15:33:36;17.63;;;10.32;;
21727;SDS011;11026;50.560;17.852;2022-12-29T15:36:10;13.45;;;8.80;;
21727;SDS011;11026;50.560;17.852;2022-12-29T15:44:23;17.27;;;11.45;;
21727;SDS011;11026;50.560;17.852;2022-12-29T15:46:55;15.18;;;10.48;;
21727;SDS011;11026;50.560;17.852;2022-12-29T15:49:23;16.13;;;10.88;;
21727;SDS011;11026;50.560;17.852;2022-12-29T15:51:58;16.15;;;9.93;;
21727;SDS011;11026;50.560;17.852;2022-12-29T15:54:26;15.57;;;9.88;;
21727;SDS011;11026;50.560;17.852;2022-12-29T15:56:58;15.55;;;9.55;;
21727;SDS011;11026;50.560;17.852;2022-12-29T15:59:27;16.55;;;10.65;;
21727;SDS011;11026;50.560;17.852;2022-12-29T16:02:02;16.92;;;11.18;;
21727;SDS011;11026;50.560;17.852;2022-12-29T16:04:38;18.55;;;12.40;;
21727;SDS011;11026;50.560;17.852;2022-12-29T16:07:33;17.70;;;11.85;;
21727;SDS011;11026;50.560;17.852;2022-12-29T16:15:47;18.88;;;11.15;;
21727;SDS011;11026;50.560;17.852;2022-12-29T16:18:23;18.92;;;10.95;;
21727;SDS011;11026;50.560;17.852;2022-12-29T16:21:01;17.92;;;8.60;;
21727;SDS011;11026;50.560;17.852;2022-12-29T16:23:30;16.98;;;9.70;;
21727;SDS011;11026;50.560;17.852;2022-12-29T16:26:05;17.20;;;10.80;;
21727;SDS011;11026;50.560;17.852;2022-12-29T16:28:47;17.27;;;10.52;;
21727;SDS011;11026;50.560;17.852;2022-12-29T16:31:24;16.65;;;10.55;;
21727;SDS011;11026;50.560;17.852;2022-12-29T16:34:09;16.00;;;10.63;;
21727;SDS011;11026;50.560;17.852;2022-12-29T16:37:04;14.23;;;9.30;;
21727;SDS011;11026;50.560;17.852;2022-12-29T16:39:50;14.60;;;9.75;;
21727;SDS011;11026;50.560;17.852;2022-12-29T16:42:43;16.85;;;10.00;;
21727;SDS011;11026;50.560;17.852;2022-12-29T16:50:18;14.80;;;10.10;;
21727;SDS011;11026;50.560;17.852;2022-12-29T16:52:55;16.90;;;10.68;;
21727;SDS011;11026;50.560;17.852;2022-12-29T16:55:23;14.50;;;10.52;;
21727;SDS011;11026;50.560;17.852;2022-12-29T16:57:52;18.15;;;11.35;;
21727;SDS011;11026;50.560;17.852;2022-12-29T17:00:28;16.02;;;10.57;;
21727;SDS011;11026;50.560;17.852;2022-12-29T17:02:59;18.88;;;11.27;;
21727;SDS011;11026;50.560;17.852;2022-12-29T17:05:28;17.23;;;10.50;;
21727;SDS011;11026;50.560;17.852;2022-12-29T17:07:55;17.17;;;9.85;;
21727;SDS011;11026;50.560;17.852;2022-12-29T17:13:15;17.45;;;10.82;;
21727;SDS011;11026;50.560;17.852;2022-12-29T17:15:43;17.73;;;10.70;;
21727;SDS011;11026;50.560;17.852;2022-12-29T17:18:10;17.50;;;10.55;;
21727;SDS011;11026;50.560;17.852;2022-12-29T17:20:39;17.30;;;11.57;;
21727;SDS011;11026;50.560;17.852;2022-12-29T17:23:14;16.52;;;11.52;;
21727;SDS011;11026;50.560;17.852;2022-12-29T17:30:59;22.63;;;14.77;;
21727;SDS011;11026;50.560;17.852;2022-12-29T17:33:32;21.75;;;13.77;;
21727;SDS011;11026;50.560;17.852;2022-12-29T17:36:03;21.38;;;14.25;;
21727;SDS011;11026;50.560;17.852;2022-12-29T17:38:31;26.83;;;15.82;;
21727;SDS011;11026;50.560;17.852;2022-12-29T17:41:03;28.98;;;16.42;;
21727;SDS011;11026;50.560;17.852;2022-12-29T17:43:35;27.05;;;16.80;;
21727;SDS011;11026;50.560;17.852;2022-12-29T17:46:04;29.83;;;17.30;;
21727;SDS011;11026;50.560;17.852;2022-12-29T17:48:32;43.10;;;22.77;;
21727;SDS011;11026;50.560;17.852;2022-12-29T17:51:02;30.37;;;17.57;;
21727;SDS011;11026;50.560;17.852;2022-12-29T17:53:30;21.45;;;12.45;;
21727;SDS011;11026;50.560;17.852;2022-12-29T17:55:57;18.60;;;10.80;;
21727;SDS011;11026;50.560;17.852;2022-12-29T17:58:31;17.75;;;10.60;;
21727;SDS011;11026;50.560;17.852;2022-12-29T18:01:00;14.98;;;10.65;;